Cedar Rapids, Iowa
Current Conditions -  °F | °C
As of 4:52 AM on Thursday 23 Oct 2014 (Local Time) from KCID Reporting Station
Few Clouds Few Clouds  
Wind Chill: 44°   Ceiling: Unl
Heat Index: 47°   Visibility: 10mi
Dew Point: 41°   Wind: 7mph
Humidity: 80%   Direction: 180°S
Pressure: 30.12"   Gusts: NA
Location:  41.98°N, 91.67°W
Report Text: KCID 230952Z 18006KT 10SM FEW037 08/05 A3012 RMK AO2 SLP202 T00830050
Loading
Personal Weather Stations






























Interactive Weather Map New forecast layout! Learn more

10-Day Weather Forecast

Advertisements
Track Severe Weather on mobile